sensor_id;sensor_type;location;lat;lon;timestamp;pressure;altitude;pressure_sealevel;temperature;humidity
69239;BME280;56349;51.816;-0.026;2022-07-12T00:00:04;101682.04;;;30.74;24.74
69239;BME280;56349;51.816;-0.026;2022-07-12T00:02:28;101681.35;;;30.41;24.80
69239;BME280;56349;51.816;-0.026;2022-07-12T00:04:53;101678.39;;;30.63;24.85
69239;BME280;56349;51.816;-0.026;2022-07-12T00:07:19;101676.04;;;30.32;24.90
69239;BME280;56349;51.816;-0.026;2022-07-12T00:09:45;101675.73;;;30.54;24.96
69239;BME280;56349;51.816;-0.026;2022-07-12T00:12:11;101674.18;;;30.51;25.01
69239;BME280;56349;51.816;-0.026;2022-07-12T00:14:36;101670.59;;;30.49;25.05
69239;BME280;56349;51.816;-0.026;2022-07-12T00:17:02;101670.52;;;30.46;25.09
69239;BME280;56349;51.816;-0.026;2022-07-12T00:19:28;101668.27;;;30.17;25.13
69239;BME280;56349;51.816;-0.026;2022-07-12T00:21:54;101671.00;;;30.39;25.20
69239;BME280;56349;51.816;-0.026;2022-07-12T00:24:20;101668.45;;;30.36;25.24
69239;BME280;56349;51.816;-0.026;2022-07-12T00:26:45;101670.51;;;30.06;25.30
69239;BME280;56349;51.816;-0.026;2022-07-12T00:29:11;101671.19;;;30.29;25.35
69239;BME280;56349;51.816;-0.026;2022-07-12T00:31:37;101673.58;;;30.25;25.41
69239;BME280;56349;51.816;-0.026;2022-07-12T00:34:02;101671.43;;;29.94;25.47
69239;BME280;56349;51.816;-0.026;2022-07-12T00:36:28;101670.03;;;30.18;25.52
69239;BME280;56349;51.816;-0.026;2022-07-12T00:38:54;101667.63;;;30.14;25.59
69239;BME280;56349;51.816;-0.026;2022-07-12T00:41:20;101665.51;;;29.85;25.63
69239;BME280;56349;51.816;-0.026;2022-07-12T00:43:45;101664.55;;;30.10;25.67
69239;BME280;56349;51.816;-0.026;2022-07-12T00:46:11;101662.02;;;30.09;25.71
69239;BME280;56349;51.816;-0.026;2022-07-12T00:48:37;101654.72;;;30.08;25.74
69239;BME280;56349;51.816;-0.026;2022-07-12T00:51:02;101653.64;;;30.07;25.77
69239;BME280;56349;51.816;-0.026;2022-07-12T00:53:27;101656.28;;;30.05;25.81
69239;BME280;56349;51.816;-0.026;2022-07-12T00:55:54;101660.67;;;30.24;25.86
69239;BME280;56349;51.816;-0.026;2022-07-12T00:58:18;101664.64;;;29.99;25.90
69239;BME280;56349;51.816;-0.026;2022-07-12T01:00:44;101659.89;;;30.41;25.95
69239;BME280;56349;51.816;-0.026;2022-07-12T01:03:10;101655.90;;;29.94;25.98
69239;BME280;56349;51.816;-0.026;2022-07-12T01:05:35;101654.67;;;29.92;26.02
69239;BME280;56349;51.816;-0.026;2022-07-12T01:08:01;101657.65;;;29.88;26.07
69239;BME280;56349;51.816;-0.026;2022-07-12T01:10:28;101663.27;;;30.31;26.12
69239;BME280;56349;51.816;-0.026;2022-07-12T01:12:52;101666.25;;;30.06;26.15
69239;BME280;56349;51.816;-0.026;2022-07-12T01:15:20;101665.75;;;29.82;26.20
69239;BME280;56349;51.816;-0.026;2022-07-12T01:17:44;101662.36;;;29.80;26.22
69239;BME280;56349;51.816;-0.026;2022-07-12T01:20:10;101660.19;;;30.23;26.26
69239;BME280;56349;51.816;-0.026;2022-07-12T01:22:36;101657.09;;;29.76;26.28
69239;BME280;56349;51.816;-0.026;2022-07-12T01:25:02;101659.36;;;29.97;26.31
69239;BME280;56349;51.816;-0.026;2022-07-12T01:27:26;101661.16;;;29.74;26.34
69239;BME280;56349;51.816;-0.026;2022-07-12T01:29:52;101662.52;;;30.17;26.36
69239;BME280;56349;51.816;-0.026;2022-07-12T01:32:18;101663.42;;;29.71;26.39
69239;BME280;56349;51.816;-0.026;2022-07-12T01:34:44;101666.95;;;29.91;26.42
69239;BME280;56349;51.816;-0.026;2022-07-12T01:37:09;101672.95;;;29.68;26.45
69239;BME280;56349;51.816;-0.026;2022-07-12T01:39:35;101677.40;;;30.11;26.47
69239;BME280;56349;51.816;-0.026;2022-07-12T01:42:01;101679.47;;;29.67;26.49
69239;BME280;56349;51.816;-0.026;2022-07-12T01:44:27;101680.62;;;29.66;26.51
69239;BME280;56349;51.816;-0.026;2022-07-12T01:46:52;101682.15;;;29.64;26.55
69239;BME280;56349;51.816;-0.026;2022-07-12T01:49:18;101681.63;;;29.63;26.57
69239;BME280;56349;51.816;-0.026;2022-07-12T01:51:44;101682.09;;;29.59;26.61
69239;BME280;56349;51.816;-0.026;2022-07-12T01:54:10;101680.96;;;30.02;26.63
69239;BME280;56349;51.816;-0.026;2022-07-12T01:56:36;101679.58;;;30.02;26.65
69239;BME280;56349;51.816;-0.026;2022-07-12T01:59:01;101679.14;;;29.80;26.66
69239;BME280;56349;51.816;-0.026;2022-07-12T02:01:27;101676.07;;;30.00;26.68
69239;BME280;56349;51.816;-0.026;2022-07-12T02:03:53;101673.15;;;29.54;26.71
69239;BME280;56349;51.816;-0.026;2022-07-12T02:06:19;101672.43;;;29.75;26.75
69239;BME280;56349;51.816;-0.026;2022-07-12T02:08:44;101673.01;;;29.52;26.76
69239;BME280;56349;51.816;-0.026;2022-07-12T02:11:10;101675.22;;;29.50;26.80
69239;BME280;56349;51.816;-0.026;2022-07-12T02:13:35;101678.63;;;29.71;26.82
69239;BME280;56349;51.816;-0.026;2022-07-12T02:16:01;101682.30;;;29.92;26.85
69239;BME280;56349;51.816;-0.026;2022-07-12T02:18:27;101682.93;;;29.92;26.87
69239;BME280;56349;51.816;-0.026;2022-07-12T02:20:52;101677.83;;;29.68;26.89
69239;BME280;56349;51.816;-0.026;2022-07-12T02:23:18;101667.70;;;29.44;26.91
69239;BME280;56349;51.816;-0.026;2022-07-12T02:25:43;101655.03;;;29.87;26.95
69239;BME280;56349;51.816;-0.026;2022-07-12T02:28:09;101650.39;;;29.41;26.97
69239;BME280;56349;51.816;-0.026;2022-07-12T02:30:35;101646.94;;;29.84;27.00
69239;BME280;56349;51.816;-0.026;2022-07-12T02:33:00;101648.83;;;29.59;27.03
69239;BME280;56349;51.816;-0.026;2022-07-12T02:35:26;101650.04;;;29.36;27.06
69239;BME280;56349;51.816;-0.026;2022-07-12T02:37:52;101650.56;;;29.36;27.06
69239;BME280;56349;51.816;-0.026;2022-07-12T02:40:18;101651.80;;;29.35;27.08
69239;BME280;56349;51.816;-0.026;2022-07-12T02:42:44;101655.13;;;29.79;27.10
69239;BME280;56349;51.816;-0.026;2022-07-12T02:45:10;101657.18;;;29.79;27.11
69239;BME280;56349;51.816;-0.026;2022-07-12T02:47:37;101662.28;;;29.77;27.14
69239;BME280;56349;51.816;-0.026;2022-07-12T02:50:00;101668.08;;;29.53;27.17
69239;BME280;56349;51.816;-0.026;2022-07-12T02:52:26;101665.45;;;29.73;27.20
69239;BME280;56349;51.816;-0.026;2022-07-12T02:54:51;101661.48;;;29.71;27.22
69239;BME280;56349;51.816;-0.026;2022-07-12T02:57:17;101660.73;;;29.70;27.23
69239;BME280;56349;51.816;-0.026;2022-07-12T02:59:43;101667.22;;;29.70;27.24
69239;BME280;56349;51.816;-0.026;2022-07-12T03:02:08;101669.44;;;29.69;27.26
69239;BME280;56349;51.816;-0.026;2022-07-12T03:04:34;101670.15;;;29.68;27.28
69239;BME280;56349;51.816;-0.026;2022-07-12T03:07:00;101668.17;;;29.44;27.30
69239;BME280;56349;51.816;-0.026;2022-07-12T03:09:26;101664.11;;;29.66;27.32
69239;BME280;56349;51.816;-0.026;2022-07-12T03:11:51;101655.60;;;29.44;27.33
69239;BME280;56349;51.816;-0.026;2022-07-12T03:14:17;101647.17;;;29.64;27.35
69239;BME280;56349;51.816;-0.026;2022-07-12T03:16:43;101650.15;;;29.43;27.34
69239;BME280;56349;51.816;-0.026;2022-07-12T03:19:09;101653.37;;;29.64;27.36
69239;BME280;56349;51.816;-0.026;2022-07-12T03:21:35;101653.42;;;29.63;27.38
69239;BME280;56349;51.816;-0.026;2022-07-12T03:24:00;101653.00;;;29.40;27.40
69239;BME280;56349;51.816;-0.026;2022-07-12T03:26:26;101656.11;;;29.40;27.41
69239;BME280;56349;51.816;-0.026;2022-07-12T03:28:52;101649.34;;;29.17;27.42
69239;BME280;56349;51.816;-0.026;2022-07-12T03:31:18;101643.43;;;29.17;27.44
69239;BME280;56349;51.816;-0.026;2022-07-12T03:33:43;101643.16;;;29.62;27.47
69239;BME280;56349;51.816;-0.026;2022-07-12T03:36:09;101642.57;;;29.18;27.52
69239;BME280;56349;51.816;-0.026;2022-07-12T03:38:35;101639.69;;;29.67;27.53
69239;BME280;56349;51.816;-0.026;2022-07-12T03:41:01;101639.53;;;29.50;27.55
69239;BME280;56349;51.816;-0.026;2022-07-12T03:43:26;101640.45;;;29.39;27.52
69239;BME280;56349;51.816;-0.026;2022-07-12T03:45:52;101637.73;;;29.52;27.44
69239;BME280;56349;51.816;-0.026;2022-07-12T03:48:18;101641.66;;;29.67;27.34
69239;BME280;56349;51.816;-0.026;2022-07-12T03:50:44;101642.43;;;29.82;27.20
69239;BME280;56349;51.816;-0.026;2022-07-12T03:53:09;101640.44;;;29.94;27.07
69239;BME280;56349;51.816;-0.026;2022-07-12T03:55:35;101635.67;;;30.03;26.95
69239;BME280;56349;51.816;-0.026;2022-07-12T03:58:01;101637.55;;;30.10;26.85
69239;BME280;56349;51.816;-0.026;2022-07-12T04:00:26;101640.81;;;30.12;26.79
69239;BME280;56349;51.816;-0.026;2022-07-12T04:02:52;101638.95;;;30.14;26.73
69239;BME280;56349;51.816;-0.026;2022-07-12T04:05:18;101638.99;;;29.87;26.70
69239;BME280;56349;51.816;-0.026;2022-07-12T04:07:43;101640.54;;;30.12;26.69
69239;BME280;56349;51.816;-0.026;2022-07-12T04:10:09;101641.88;;;30.11;26.67
69239;BME280;56349;51.816;-0.026;2022-07-12T04:12:35;101643.32;;;30.07;26.69
69239;BME280;56349;51.816;-0.026;2022-07-12T04:15:01;101647.94;;;30.02;26.71
69239;BME280;56349;51.816;-0.026;2022-07-12T04:17:27;101649.23;;;29.98;26.74
69239;BME280;56349;51.816;-0.026;2022-07-12T04:19:53;101648.92;;;29.95;26.76
69239;BME280;56349;51.816;-0.026;2022-07-12T04:22:18;101653.07;;;29.88;26.82
69239;BME280;56349;51.816;-0.026;2022-07-12T04:24:44;101655.60;;;30.05;26.85
69239;BME280;56349;51.816;-0.026;2022-07-12T04:27:10;101655.99;;;29.76;26.91
69239;BME280;56349;51.816;-0.026;2022-07-12T04:29:36;101661.60;;;29.70;26.95
69239;BME280;56349;51.816;-0.026;2022-07-12T04:32:02;101665.43;;;29.65;27.01
69239;BME280;56349;51.816;-0.026;2022-07-12T04:34:27;101667.78;;;30.06;27.04
69239;BME280;56349;51.816;-0.026;2022-07-12T04:36:53;101668.87;;;30.01;27.07
69239;BME280;56349;51.816;-0.026;2022-07-12T04:39:19;101669.08;;;29.96;27.12
69239;BME280;56349;51.816;-0.026;2022-07-12T04:41:45;101670.58;;;29.69;27.17
69239;BME280;56349;51.816;-0.026;2022-07-12T04:44:10;101667.88;;;29.43;27.21
69239;BME280;56349;51.816;-0.026;2022-07-12T04:46:36;101670.26;;;29.61;27.26
69239;BME280;56349;51.816;-0.026;2022-07-12T04:49:02;101668.98;;;29.58;27.30
69239;BME280;56349;51.816;-0.026;2022-07-12T04:51:28;101666.83;;;29.78;27.33
69239;BME280;56349;51.816;-0.026;2022-07-12T04:53:54;101668.40;;;29.75;27.35
69239;BME280;56349;51.816;-0.026;2022-07-12T04:56:20;101665.46;;;29.28;27.38
69239;BME280;56349;51.816;-0.026;2022-07-12T04:58:45;101659.85;;;29.48;27.41
69239;BME280;56349;51.816;-0.026;2022-07-12T05:01:11;101650.38;;;29.67;27.43
69239;BME280;56349;51.816;-0.026;2022-07-12T05:03:37;101648.67;;;29.64;27.47
69239;BME280;56349;51.816;-0.026;2022-07-12T05:06:03;101655.24;;;29.39;27.51
69239;BME280;56349;51.816;-0.026;2022-07-12T05:08:29;101653.72;;;29.59;27.53
69239;BME280;56349;51.816;-0.026;2022-07-12T05:10:55;101653.62;;;29.34;27.58
69239;BME280;56349;51.816;-0.026;2022-07-12T05:13:20;101654.22;;;29.53;27.62
69239;BME280;56349;51.816;-0.026;2022-07-12T05:15:46;101654.20;;;29.50;27.64
69239;BME280;56349;51.816;-0.026;2022-07-12T05:18:12;101660.60;;;29.48;27.67
69239;BME280;56349;51.816;-0.026;2022-07-12T05:20:38;101663.52;;;29.25;27.69
69239;BME280;56349;51.816;-0.026;2022-07-12T05:23:03;101665.35;;;29.47;27.70
69239;BME280;56349;51.816;-0.026;2022-07-12T05:25:28;101671.52;;;29.48;27.70
69239;BME280;56349;51.816;-0.026;2022-07-12T05:27:54;101675.30;;;29.50;27.66
69239;BME280;56349;51.816;-0.026;2022-07-12T05:30:20;101672.64;;;29.49;27.70
69239;BME280;56349;51.816;-0.026;2022-07-12T05:32:46;101671.47;;;29.25;27.72
69239;BME280;56349;51.816;-0.026;2022-07-12T05:35:12;101674.47;;;29.45;27.75
69239;BME280;56349;51.816;-0.026;2022-07-12T05:37:37;101673.08;;;29.42;27.78
69239;BME280;56349;51.816;-0.026;2022-07-12T05:40:04;101674.52;;;29.40;27.80
69239;BME280;56349;51.816;-0.026;2022-07-12T05:42:28;101676.39;;;29.37;27.84
69239;BME280;56349;51.816;-0.026;2022-07-12T05:44:54;101676.76;;;29.35;27.86
69239;BME280;56349;51.816;-0.026;2022-07-12T05:47:20;101679.33;;;29.33;27.88
69239;BME280;56349;51.816;-0.026;2022-07-12T05:49:46;101682.79;;;29.30;27.91
69239;BME280;56349;51.816;-0.026;2022-07-12T05:52:11;101678.08;;;29.30;27.91
69239;BME280;56349;51.816;-0.026;2022-07-12T05:54:38;101676.37;;;29.09;27.92
69239;BME280;56349;51.816;-0.026;2022-07-12T05:57:03;101674.45;;;29.30;27.93
69239;BME280;56349;51.816;-0.026;2022-07-12T05:59:28;101678.25;;;29.06;27.94
69239;BME280;56349;51.816;-0.026;2022-07-12T06:01:53;101678.61;;;29.26;27.97
69239;BME280;56349;51.816;-0.026;2022-07-12T06:04:19;101680.01;;;29.24;28.00
69239;BME280;56349;51.816;-0.026;2022-07-12T06:06:45;101676.55;;;29.25;28.00
69239;BME280;56349;51.816;-0.026;2022-07-12T06:09:10;101674.70;;;29.27;27.99
69239;BME280;56349;51.816;-0.026;2022-07-12T06:11:36;101673.55;;;29.27;28.00
69239;BME280;56349;51.816;-0.026;2022-07-12T06:14:02;101673.14;;;29.27;28.01
69239;BME280;56349;51.816;-0.026;2022-07-12T06:16:28;101675.68;;;29.51;28.03
69239;BME280;56349;51.816;-0.026;2022-07-12T06:18:53;101680.24;;;29.01;28.06
69239;BME280;56349;51.816;-0.026;2022-07-12T06:21:19;101676.07;;;29.21;28.09
69239;BME280;56349;51.816;-0.026;2022-07-12T06:23:45;101677.36;;;29.22;28.09
69239;BME280;56349;51.816;-0.026;2022-07-12T06:26:10;101681.58;;;29.22;28.10
69239;BME280;56349;51.816;-0.026;2022-07-12T06:28:36;101682.36;;;29.22;28.11
69239;BME280;56349;51.816;-0.026;2022-07-12T06:31:02;101680.74;;;29.21;28.13
69239;BME280;56349;51.816;-0.026;2022-07-12T06:33:28;101681.19;;;29.25;28.13
69239;BME280;56349;51.816;-0.026;2022-07-12T06:35:54;101683.26;;;29.35;28.32
69239;BME280;56349;51.816;-0.026;2022-07-12T06:38:20;101678.57;;;28.99;28.43
69239;BME280;56349;51.816;-0.026;2022-07-12T06:40:45;101679.75;;;29.54;28.52
69239;BME280;56349;51.816;-0.026;2022-07-12T06:43:12;101679.18;;;29.12;28.62
69239;BME280;56349;51.816;-0.026;2022-07-12T06:45:36;101678.74;;;29.39;28.83
69239;BME280;56349;51.816;-0.026;2022-07-12T06:48:02;101674.74;;;29.26;28.80
69239;BME280;56349;51.816;-0.026;2022-07-12T06:50:29;101674.89;;;29.42;28.52
69239;BME280;56349;51.816;-0.026;2022-07-12T06:52:54;101673.37;;;29.58;28.37
69239;BME280;56349;51.816;-0.026;2022-07-12T06:55:20;101674.84;;;29.79;28.17
69239;BME280;56349;51.816;-0.026;2022-07-12T06:57:46;101670.86;;;30.00;27.97
69239;BME280;56349;51.816;-0.026;2022-07-12T07:00:13;101669.13;;;29.94;27.79
69239;BME280;56349;51.816;-0.026;2022-07-12T07:02:38;101670.88;;;30.19;27.58
69239;BME280;56349;51.816;-0.026;2022-07-12T07:05:05;101673.72;;;30.43;27.35
69239;BME280;56349;51.816;-0.026;2022-07-12T07:07:29;101676.04;;;30.44;27.12
69239;BME280;56349;51.816;-0.026;2022-07-12T07:09:55;101668.80;;;30.64;26.93
69239;BME280;56349;51.816;-0.026;2022-07-12T07:12:21;101669.92;;;30.84;26.77
69239;BME280;56349;51.816;-0.026;2022-07-12T07:14:47;101667.40;;;30.77;26.60
69239;BME280;56349;51.816;-0.026;2022-07-12T07:17:15;101665.67;;;31.26;26.38
69239;BME280;56349;51.816;-0.026;2022-07-12T07:19:38;101662.11;;;31.47;26.19
69239;BME280;56349;51.816;-0.026;2022-07-12T07:22:04;101659.30;;;31.13;26.02
69239;BME280;56349;51.816;-0.026;2022-07-12T07:24:30;101654.64;;;31.30;25.87
69239;BME280;56349;51.816;-0.026;2022-07-12T07:26:57;101648.64;;;31.44;25.72
69239;BME280;56349;51.816;-0.026;2022-07-12T07:29:21;101648.50;;;31.57;25.60
69239;BME280;56349;51.816;-0.026;2022-07-12T07:31:47;101650.33;;;31.51;25.51
69239;BME280;56349;51.816;-0.026;2022-07-12T07:34:13;101652.27;;;31.68;25.31
69239;BME280;56349;51.816;-0.026;2022-07-12T07:36:39;101646.96;;;31.82;25.15
69239;BME280;56349;51.816;-0.026;2022-07-12T07:39:05;101651.19;;;32.17;25.04
69239;BME280;56349;51.816;-0.026;2022-07-12T07:41:31;101657.21;;;32.22;24.97
69239;BME280;56349;51.816;-0.026;2022-07-12T07:43:57;101662.23;;;32.25;24.91
69239;BME280;56349;51.816;-0.026;2022-07-12T07:46:23;101669.31;;;32.07;24.85
69239;BME280;56349;51.816;-0.026;2022-07-12T07:48:49;101675.95;;;32.38;24.76
69239;BME280;56349;51.816;-0.026;2022-07-12T07:51:15;101682.17;;;31.96;24.68
69239;BME280;56349;51.816;-0.026;2022-07-12T07:53:39;101681.14;;;32.05;24.66
69239;BME280;56349;51.816;-0.026;2022-07-12T07:56:06;101679.73;;;32.44;24.54
69239;BME280;56349;51.816;-0.026;2022-07-12T07:58:30;101676.98;;;32.23;24.47
69239;BME280;56349;51.816;-0.026;2022-07-12T08:00:57;101679.53;;;32.23;24.49
69239;BME280;56349;51.816;-0.026;2022-07-12T08:03:23;101674.23;;;32.24;24.45
69239;BME280;56349;51.816;-0.026;2022-07-12T08:05:47;101672.57;;;32.28;24.50
69239;BME280;56349;51.816;-0.026;2022-07-12T08:08:13;101673.64;;;32.36;24.15
69239;BME280;56349;51.816;-0.026;2022-07-12T08:10:40;101677.41;;;32.42;23.84
69239;BME280;56349;51.816;-0.026;2022-07-12T08:13:05;101684.54;;;32.39;23.66
69239;BME280;56349;51.816;-0.026;2022-07-12T08:15:30;101690.53;;;32.20;23.72
69239;BME280;56349;51.816;-0.026;2022-07-12T08:17:55;101695.23;;;32.07;23.65
69239;BME280;56349;51.816;-0.026;2022-07-12T08:20:22;101695.64;;;31.96;23.76
69239;BME280;56349;51.816;-0.026;2022-07-12T08:22:46;101698.54;;;32.06;23.86
69239;BME280;56349;51.816;-0.026;2022-07-12T08:25:12;101702.52;;;32.09;23.90
69239;BME280;56349;51.816;-0.026;2022-07-12T08:27:38;101705.49;;;31.92;24.00
69239;BME280;56349;51.816;-0.026;2022-07-12T08:30:04;101708.14;;;31.63;24.05
69239;BME280;56349;51.816;-0.026;2022-07-12T08:32:29;101706.98;;;31.78;24.15
69239;BME280;56349;51.816;-0.026;2022-07-12T08:34:55;101708.99;;;31.70;24.24
69239;BME280;56349;51.816;-0.026;2022-07-12T08:37:21;101711.86;;;31.61;24.33
69239;BME280;56349;51.816;-0.026;2022-07-12T08:39:46;101711.52;;;31.50;24.41
69239;BME280;56349;51.816;-0.026;2022-07-12T08:42:14;101715.97;;;31.87;24.53
69239;BME280;56349;51.816;-0.026;2022-07-12T08:44:40;101718.11;;;31.49;24.64
69239;BME280;56349;51.816;-0.026;2022-07-12T08:47:04;101720.86;;;31.62;24.75
69239;BME280;56349;51.816;-0.026;2022-07-12T08:49:28;101720.22;;;31.23;24.86
69239;BME280;56349;51.816;-0.026;2022-07-12T08:51:54;101720.90;;;31.38;24.95
69239;BME280;56349;51.816;-0.026;2022-07-12T08:54:20;101718.26;;;31.27;25.04
69239;BME280;56349;51.816;-0.026;2022-07-12T08:56:46;101715.54;;;31.14;25.14
69239;BME280;56349;51.816;-0.026;2022-07-12T08:59:13;101708.31;;;31.00;25.25
69239;BME280;56349;51.816;-0.026;2022-07-12T09:01:42;101703.96;;;30.91;25.38
69239;BME280;56349;51.816;-0.026;2022-07-12T09:04:11;101706.08;;;31.02;25.51
69239;BME280;56349;51.816;-0.026;2022-07-12T09:06:28;101705.87;;;30.67;25.67
69239;BME280;56349;51.816;-0.026;2022-07-12T09:08:54;101703.04;;;30.81;25.81
69239;BME280;56349;51.816;-0.026;2022-07-12T09:11:19;101697.75;;;30.55;25.92
69239;BME280;56349;51.816;-0.026;2022-07-12T09:13:48;101684.97;;;30.56;26.00
69239;BME280;56349;51.816;-0.026;2022-07-12T09:16:13;101680.04;;;30.83;26.05
69239;BME280;56349;51.816;-0.026;2022-07-12T09:18:37;101675.52;;;30.70;26.04
69239;BME280;56349;51.816;-0.026;2022-07-12T09:21:02;101669.19;;;30.82;26.00
69239;BME280;56349;51.816;-0.026;2022-07-12T09:23:28;101668.03;;;30.99;25.90
69239;BME280;56349;51.816;-0.026;2022-07-12T09:25:54;101676.74;;;31.16;25.85
69239;BME280;56349;51.816;-0.026;2022-07-12T09:28:19;101677.86;;;31.04;25.78
69239;BME280;56349;51.816;-0.026;2022-07-12T09:30:49;101671.01;;;31.47;25.68
69239;BME280;56349;51.816;-0.026;2022-07-12T09:33:10;101670.92;;;31.18;25.59
69239;BME280;56349;51.816;-0.026;2022-07-12T09:35:36;101674.53;;;31.56;25.45
69239;BME280;56349;51.816;-0.026;2022-07-12T09:38:07;101671.49;;;31.47;25.33
69239;BME280;56349;51.816;-0.026;2022-07-12T09:40:27;101668.93;;;31.60;25.31
69239;BME280;56349;51.816;-0.026;2022-07-12T09:42:53;101672.82;;;31.74;25.23
69239;BME280;56349;51.816;-0.026;2022-07-12T09:45:19;101667.73;;;31.61;25.16
69239;BME280;56349;51.816;-0.026;2022-07-12T09:47:45;101659.47;;;31.93;25.07
69239;BME280;56349;51.816;-0.026;2022-07-12T09:50:10;101650.64;;;32.04;24.99
69239;BME280;56349;51.816;-0.026;2022-07-12T09:52:37;101658.89;;;32.16;24.91
69239;BME280;56349;51.816;-0.026;2022-07-12T09:55:03;101661.60;;;32.27;24.83
69239;BME280;56349;51.816;-0.026;2022-07-12T09:57:30;101663.18;;;32.35;24.81
69239;BME280;56349;51.816;-0.026;2022-07-12T09:59:53;101661.81;;;32.20;24.77
69239;BME280;56349;51.816;-0.026;2022-07-12T10:02:19;101662.95;;;32.27;24.70
69239;BME280;56349;51.816;-0.026;2022-07-12T10:04:46;101662.42;;;32.34;24.62
69239;BME280;56349;51.816;-0.026;2022-07-12T10:07:11;101664.11;;;32.40;24.57
69239;BME280;56349;51.816;-0.026;2022-07-12T10:09:37;101658.77;;;32.18;24.57
69239;BME280;56349;51.816;-0.026;2022-07-12T10:12:04;101655.26;;;32.27;24.49
69239;BME280;56349;51.816;-0.026;2022-07-12T10:14:29;101653.71;;;32.32;24.44
69239;BME280;56349;51.816;-0.026;2022-07-12T10:16:55;101653.44;;;32.35;24.41
69239;BME280;56349;51.816;-0.026;2022-07-12T10:19:24;101653.43;;;32.43;24.34
69239;BME280;56349;51.816;-0.026;2022-07-12T10:21:48;101652.65;;;32.47;24.26
69239;BME280;56349;51.816;-0.026;2022-07-12T10:26:37;101655.37;;;32.18;24.20
69239;BME280;56349;51.816;-0.026;2022-07-12T10:29:03;101660.49;;;32.54;24.23
69239;BME280;56349;51.816;-0.026;2022-07-12T10:31:29;101656.59;;;32.12;24.27
69239;BME280;56349;51.816;-0.026;2022-07-12T10:36:17;101646.19;;;32.26;24.49
69239;BME280;56349;51.816;-0.026;2022-07-12T10:38:49;101637.60;;;32.13;24.60
69239;BME280;56349;51.816;-0.026;2022-07-12T10:41:17;101636.58;;;31.80;24.75
69239;BME280;56349;51.816;-0.026;2022-07-12T10:43:34;101632.88;;;31.93;24.87
69239;BME280;56349;51.816;-0.026;2022-07-12T10:46:04;101632.02;;;31.94;24.90
69239;BME280;56349;51.816;-0.026;2022-07-12T10:48:26;101635.87;;;31.99;24.93
69239;BME280;56349;51.816;-0.026;2022-07-12T10:50:55;101631.05;;;32.08;24.91
69239;BME280;56349;51.816;-0.026;2022-07-12T10:53:21;101627.71;;;31.97;24.88
69239;BME280;56349;51.816;-0.026;2022-07-12T10:58:08;101627.46;;;32.40;24.72
69239;BME280;56349;51.816;-0.026;2022-07-12T11:00:34;101628.12;;;32.29;24.62
69239;BME280;56349;51.816;-0.026;2022-07-12T11:03:01;101630.81;;;32.13;24.56
69239;BME280;56349;51.816;-0.026;2022-07-12T11:05:27;101636.21;;;32.49;24.50
69239;BME280;56349;51.816;-0.026;2022-07-12T11:07:51;101641.11;;;32.31;24.41
69239;BME280;56349;51.816;-0.026;2022-07-12T11:10:17;101648.68;;;32.39;24.35
69239;BME280;56349;51.816;-0.026;2022-07-12T11:12:43;101639.91;;;32.46;24.30
69239;BME280;56349;51.816;-0.026;2022-07-12T11:15:09;101634.99;;;32.53;24.23
69239;BME280;56349;51.816;-0.026;2022-07-12T11:17:33;101638.78;;;32.60;24.16
69239;BME280;56349;51.816;-0.026;2022-07-12T11:20:05;101636.95;;;32.85;24.18
69239;BME280;56349;51.816;-0.026;2022-07-12T11:22:25;101634.36;;;32.61;24.16
69239;BME280;56349;51.816;-0.026;2022-07-12T11:24:52;101630.16;;;32.63;24.13
69239;BME280;56349;51.816;-0.026;2022-07-12T11:27:16;101631.53;;;32.65;24.06
69239;BME280;56349;51.816;-0.026;2022-07-12T11:32:08;101624.75;;;32.71;23.90
69239;BME280;56349;51.816;-0.026;2022-07-12T11:34:34;101623.49;;;32.72;23.81
69239;BME280;56349;51.816;-0.026;2022-07-12T11:36:59;101625.76;;;32.69;23.72
69239;BME280;56349;51.816;-0.026;2022-07-12T11:39:29;101626.48;;;32.62;23.69
69239;BME280;56349;51.816;-0.026;2022-07-12T11:41:55;101619.22;;;32.50;23.65
69239;BME280;56349;51.816;-0.026;2022-07-12T11:44:16;101618.86;;;32.35;23.62
69239;BME280;56349;51.816;-0.026;2022-07-12T11:46:49;101619.51;;;32.50;23.67
69239;BME280;56349;51.816;-0.026;2022-07-12T11:49:07;101616.31;;;32.39;23.74
69239;BME280;56349;51.816;-0.026;2022-07-12T11:51:33;101620.40;;;32.09;23.84
69239;BME280;56349;51.816;-0.026;2022-07-12T11:53:58;101615.09;;;32.34;23.93
69239;BME280;56349;51.816;-0.026;2022-07-12T11:56:29;101616.05;;;32.57;23.93
69239;BME280;56349;51.816;-0.026;2022-07-12T11:58:55;101618.78;;;32.41;23.98
69239;BME280;56349;51.816;-0.026;2022-07-12T12:01:15;101607.58;;;32.50;24.03
69239;BME280;56349;51.816;-0.026;2022-07-12T12:03:44;101607.10;;;32.56;24.03
69239;BME280;56349;51.816;-0.026;2022-07-12T12:06:07;101605.91;;;32.36;24.03
69239;BME280;56349;51.816;-0.026;2022-07-12T12:08:33;101600.75;;;32.69;24.04
69239;BME280;56349;51.816;-0.026;2022-07-12T12:10:59;101603.46;;;32.48;24.01
69239;BME280;56349;51.816;-0.026;2022-07-12T12:13:26;101606.14;;;32.56;23.99
69239;BME280;56349;51.816;-0.026;2022-07-12T12:15:51;101598.96;;;32.64;23.96
69239;BME280;56349;51.816;-0.026;2022-07-12T12:18:16;101598.10;;;32.36;23.87
69239;BME280;56349;51.816;-0.026;2022-07-12T12:20:41;101597.26;;;32.95;23.80
69239;BME280;56349;51.816;-0.026;2022-07-12T12:23:14;101601.40;;;33.10;23.70
69239;BME280;56349;51.816;-0.026;2022-07-12T12:25:35;101600.75;;;33.01;23.57
69239;BME280;56349;51.816;-0.026;2022-07-12T12:27:58;101598.25;;;33.32;23.81
69239;BME280;56349;51.816;-0.026;2022-07-12T12:30:24;101595.39;;;32.94;23.85
69239;BME280;56349;51.816;-0.026;2022-07-12T12:32:51;101596.53;;;33.01;23.66
69239;BME280;56349;51.816;-0.026;2022-07-12T12:35:16;101594.39;;;33.32;23.63
69239;BME280;56349;51.816;-0.026;2022-07-12T12:37:39;101591.69;;;33.10;23.62
69239;BME280;56349;51.816;-0.026;2022-07-12T12:40:09;101590.19;;;33.02;23.76